Time;durP1;ratioP1;P1;durP2;ratioP2;P2;SDS_P1;SDS_P2;PMS_P1;PMS_P2;Temp;Humidity;BMP_temperature;BMP_pressure;BME280_temperature;BME280_humidity;BME280_pressure;Samples;Min_cycle;Max_cycle;Signal;HPM_P1;HPM_P2
2024/01/19 00:01:56;;;;;;;5.28;1.30;;;;;;;10.97;100.00;92810.25;6217034;23;19997;-86
2024/01/19 00:04:22;;;;;;;4.93;1.23;;;;;;;10.97;100.00;92800.53;6192265;23;20012;-86
2024/01/19 00:06:47;;;;;;;12.38;1.50;;;;;;;11.13;100.00;92810.59;6192181;23;19997;-86
2024/01/19 00:09:13;;;;;;;7.22;1.42;;;;;;;11.01;100.00;92824.28;6192025;23;20008;-86
2024/01/19 00:11:39;;;;;;;8.40;1.70;;;;;;;10.81;100.00;92808.09;6191675;23;20032;-86
2024/01/19 00:14:07;;;;;;;6.90;1.05;;;;;;;10.77;100.00;92807.19;6192269;23;20409;-86
2024/01/19 00:16:32;;;;;;;7.55;1.30;;;;;;;10.73;100.00;92807.00;6216657;23;20001;-86
2024/01/19 00:19:04;;;;;;;10.63;1.48;;;;;;;10.80;100.00;92817.03;6216667;23;20031;-86
2024/01/19 00:21:29;;;;;;;6.10;1.42;;;;;;;10.75;100.00;92802.22;6191614;23;20406;-86
2024/01/19 00:23:55;;;;;;;10.30;1.55;;;;;;;10.68;100.00;92812.38;6216496;23;20016;-86
2024/01/19 00:26:20;;;;;;;7.22;1.02;;;;;;;10.81;100.00;92813.34;6216579;23;20055;-86
2024/01/19 00:28:45;;;;;;;11.02;1.98;;;;;;;10.85;100.00;92818.75;6216438;23;20000;-86
2024/01/19 00:31:11;;;;;;;10.77;1.63;;;;;;;10.79;100.00;92814.72;6191619;23;19997;-86
2024/01/19 00:33:36;;;;;;;9.48;1.88;;;;;;;10.75;100.00;92828.44;6216822;23;20059;-86
2024/01/19 00:36:02;;;;;;;13.75;1.73;;;;;;;10.76;100.00;92813.50;6216495;23;20003;-86
2024/01/19 00:38:28;;;;;;;8.82;1.63;;;;;;;10.68;100.00;92811.63;6216719;23;20008;-86
2024/01/19 00:40:53;;;;;;;7.00;1.58;;;;;;;10.65;100.00;92814.84;6216346;23;20304;-85
2024/01/19 00:43:19;;;;;;;8.02;1.52;;;;;;;10.64;100.00;92806.22;6217797;23;20004;-85
2024/01/19 00:45:44;;;;;;;7.45;1.20;;;;;;;10.62;100.00;92812.84;6216288;23;20000;-86
2024/01/19 00:48:10;;;;;;;7.55;1.10;;;;;;;10.60;100.00;92800.81;6191672;23;20412;-86
2024/01/19 00:50:36;;;;;;;16.83;2.40;;;;;;;10.68;100.00;92803.75;6216507;23;20000;-86
2024/01/19 00:53:01;;;;;;;12.93;1.45;;;;;;;10.61;100.00;92809.44;6216351;23;20001;-86
2024/01/19 00:55:27;;;;;;;5.78;0.65;;;;;;;10.63;100.00;92822.25;6216782;23;19997;-86
2024/01/19 00:57:52;;;;;;;6.97;0.95;;;;;;;10.51;100.00;92786.94;6191484;23;20079;-86
2024/01/19 01:00:18;;;;;;;3.83;1.02;;;;;;;10.49;100.00;92804.81;6216085;23;19997;-87
2024/01/19 01:02:43;;;;;;;4.75;1.10;;;;;;;10.63;100.00;92822.25;6191994;23;20004;-87
2024/01/19 01:05:09;;;;;;;7.10;1.40;;;;;;;10.53;100.00;92804.94;6191722;23;20003;-87
2024/01/19 01:07:35;;;;;;;6.53;1.48;;;;;;;10.45;100.00;92806.47;6191669;23;20439;-86
2024/01/19 01:10:00;;;;;;;4.72;1.02;;;;;;;10.32;100.00;92789.78;6191525;23;20000;-87
2024/01/19 01:12:26;;;;;;;7.68;1.20;;;;;;;10.33;100.00;92797.34;6191500;23;20003;-86
2024/01/19 01:14:52;;;;;;;5.35;1.00;;;;;;;10.22;100.00;92798.69;6191572;23;19996;-87
2024/01/19 01:17:17;;;;;;;7.45;1.20;;;;;;;10.38;100.00;92801.66;6218200;23;20394;-86
2024/01/19 01:19:43;;;;;;;9.65;1.40;;;;;;;9.87;100.00;92791.47;6216177;23;20402;-86
2024/01/19 01:22:12;;;;;;;15.38;1.27;;;;;;;9.58;100.00;92782.25;6215930;23;20310;-86
2024/01/19 01:24:38;;;;;;;10.38;1.70;;;;;;;9.53;100.00;92786.84;6217197;23;20028;-86
2024/01/19 01:27:03;;;;;;;9.73;1.42;;;;;;;9.60;100.00;92789.78;6215997;23;19996;-86
2024/01/19 01:29:29;;;;;;;7.75;1.17;;;;;;;9.46;100.00;92824.63;6191147;23;20048;-87
2024/01/19 01:31:54;;;;;;;3.17;1.00;;;;;;;9.39;100.00;92813.03;6215835;23;20024;-86
2024/01/19 01:34:19;;;;;;;10.27;1.80;;;;;;;9.40;100.00;92812.75;6216777;23;20139;-87
2024/01/19 01:36:45;;;;;;;7.80;1.58;;;;;;;9.54;100.00;92817.13;6217689;23;20034;-86
2024/01/19 01:39:12;;;;;;;12.52;1.45;;;;;;;9.26;100.00;92812.03;6191001;23;20047;-86
2024/01/19 01:41:37;;;;;;;8.10;1.02;;;;;;;9.60;100.00;92800.25;6191224;23;20299;-89
2024/01/19 01:44:04;;;;;;;6.35;1.33;;;;;;;9.90;100.00;92816.28;6191559;23;20043;-85
2024/01/19 01:46:30;;;;;;;11.00;1.75;;;;;;;10.03;100.00;92819.84;6214521;23;20001;-85
2024/01/19 01:48:56;;;;;;;6.30;0.90;;;;;;;10.14;100.00;92846.53;6215223;23;20457;-85
2024/01/19 01:51:21;;;;;;;12.27;1.90;;;;;;;10.27;100.00;92822.09;6215515;23;20018;-86
2024/01/19 01:53:47;;;;;;;6.70;1.42;;;;;;;10.02;100.00;92837.38;6217094;23;20063;-86
2024/01/19 01:56:13;;;;;;;6.10;1.42;;;;;;;9.95;100.00;92821.38;6215950;23;20000;-85
2024/01/19 01:58:38;;;;;;;5.90;1.20;;;;;;;10.04;100.00;92830.03;6217154;23;20051;-86
2024/01/19 02:01:04;;;;;;;9.25;1.73;;;;;;;10.09;100.00;92821.25;6215539;23;20007;-86
2024/01/19 02:03:30;;;;;;;11.57;1.65;;;;;;;10.11;100.00;92823.59;6215571;23;20092;-85
2024/01/19 02:05:55;;;;;;;10.80;1.20;;;;;;;10.14;100.00;92834.22;6191014;23;20425;-87
2024/01/19 02:08:21;;;;;;;11.65;1.48;;;;;;;10.44;100.00;92836.34;6191451;23;19997;-85
2024/01/19 02:10:47;;;;;;;7.53;1.20;;;;;;;10.49;100.00;92833.63;6190708;23;20087;-85
2024/01/19 02:13:12;;;;;;;5.68;1.20;;;;;;;10.35;100.00;92848.63;6215968;23;20023;-85
2024/01/19 02:15:38;;;;;;;7.45;1.02;;;;;;;10.43;100.00;92829.56;6215657;23;20008;-85
2024/01/19 02:18:04;;;;;;;10.68;1.42;;;;;;;10.28;100.00;92830.75;6215541;23;19996;-84
2024/01/19 02:20:30;;;;;;;8.10;1.20;;;;;;;10.42;100.00;92834.06;6190895;23;20406;-82
2024/01/19 02:22:56;;;;;;;12.70;1.60;;;;;;;10.54;100.00;92830.06;6215521;23;20012;-86
2024/01/19 02:25:22;;;;;;;5.35;1.20;;;;;;;10.62;100.00;92828.56;6190828;23;20403;-82
2024/01/19 02:27:48;;;;;;;12.07;1.70;;;;;;;10.48;100.00;92834.69;6215808;23;20007;-85
2024/01/19 02:30:13;;;;;;;9.20;1.48;;;;;;;10.38;100.00;92829.69;6215890;23;20055;-84
2024/01/19 02:32:39;;;;;;;10.95;1.42;;;;;;;10.57;100.00;92839.94;6215778;23;20004;-85
2024/01/19 02:35:04;;;;;;;14.98;2.38;;;;;;;10.36;100.00;92843.06;6215495;23;19993;-85
2024/01/19 02:37:30;;;;;;;9.40;1.63;;;;;;;10.34;100.00;92837.38;6191101;23;20406;-85
2024/01/19 02:39:56;;;;;;;8.77;1.48;;;;;;;10.28;100.00;92834.13;6190673;23;19996;-86
2024/01/19 02:42:21;;;;;;;7.63;1.35;;;;;;;10.52;100.00;92835.63;6190888;23;20011;-85
2024/01/19 02:44:47;;;;;;;7.40;1.23;;;;;;;10.41;100.00;92823.88;6191256;23;20013;-85
2024/01/19 02:47:12;;;;;;;12.35;2.20;;;;;;;10.54;100.00;92828.22;6192644;23;20087;-85
2024/01/19 02:49:38;;;;;;;13.07;1.48;;;;;;;10.32;100.00;92824.56;6193033;23;20399;-85
2024/01/19 02:52:04;;;;;;;14.88;1.70;;;;;;;10.65;100.00;92815.63;6192362;23;19997;-84
2024/01/19 02:54:31;;;;;;;8.98;1.52;;;;;;;10.82;100.00;92814.09;6192708;23;20394;-85
2024/01/19 02:56:58;;;;;;;10.77;1.50;;;;;;;10.63;100.00;92807.28;6192638;23;20078;-85
2024/01/19 02:59:23;;;;;;;20.58;1.60;;;;;;;10.97;100.00;92797.16;6217969;23;20001;-83
2024/01/19 03:01:48;;;;;;;12.13;1.92;;;;;;;10.88;100.00;92786.69;6216992;23;19996;-83
2024/01/19 03:04:14;;;;;;;9.40;1.55;;;;;;;10.86;100.00;92842.00;6192112;23;20005;-83
2024/01/19 03:06:39;;;;;;;7.30;1.67;;;;;;;10.84;100.00;92828.44;6192504;23;20398;-87
2024/01/19 03:09:08;;;;;;;10.55;1.95;;;;;;;10.82;100.00;92827.19;6192416;23;20035;-85
2024/01/19 03:11:34;;;;;;;19.73;2.28;;;;;;;11.04;100.00;92818.44;6216981;23;19992;-90
2024/01/19 03:13:59;;;;;;;14.50;1.67;;;;;;;11.00;100.00;92846.34;6217794;23;20027;-91
2024/01/19 03:16:25;;;;;;;17.17;1.70;;;;;;;10.87;100.00;92822.56;6192884;23;20001;-90
2024/01/19 03:18:54;;;;;;;11.15;1.38;;;;;;;10.82;100.00;92835.84;6192790;23;20000;-91
2024/01/19 03:21:20;;;;;;;14.98;1.70;;;;;;;10.93;100.00;92859.88;6193782;23;20374;-90
2024/01/19 03:23:46;;;;;;;11.57;1.80;;;;;;;10.95;100.00;92859.59;6192914;23;20015;-91
2024/01/19 03:26:11;;;;;;;15.52;1.73;;;;;;;11.07;100.00;92856.38;6192439;23;20083;-91
2024/01/19 03:28:37;;;;;;;8.23;1.63;;;;;;;10.83;100.00;92878.50;6193127;23;20015;-91
2024/01/19 03:31:04;;;;;;;12.80;1.75;;;;;;;11.00;100.00;92848.94;6217797;23;20007;-90
2024/01/19 03:33:29;;;;;;;10.80;1.73;;;;;;;10.96;100.00;92846.16;6193415;23;20075;-89
2024/01/19 03:35:54;;;;;;;13.10;1.77;;;;;;;11.05;100.00;92854.06;6192867;23;20048;-86
2024/01/19 03:38:20;;;;;;;8.20;1.33;;;;;;;10.92;100.00;92878.56;6192315;23;20055;-91
2024/01/19 03:40:47;;;;;;;13.98;1.40;;;;;;;10.97;100.00;92860.81;6192649;23;20418;-89
2024/01/19 03:43:12;;;;;;;9.48;1.63;;;;;;;10.95;100.00;92883.19;6193009;23;20036;-87
2024/01/19 03:45:38;;;;;;;9.30;1.40;;;;;;;10.97;100.00;92860.81;6192482;23;20011;-86
2024/01/19 03:48:03;;;;;;;15.27;1.67;;;;;;;10.87;100.00;92885.47;6217086;23;20000;-86
2024/01/19 03:50:29;;;;;;;14.80;1.98;;;;;;;10.87;100.00;92855.88;6193880;23;20062;-93
2024/01/19 03:52:54;;;;;;;13.38;1.63;;;;;;;10.59;100.00;92864.75;6194065;23;20390;-92
2024/01/19 03:55:20;;;;;;;7.68;1.30;;;;;;;10.74;100.00;92868.00;6191953;23;20089;-92
2024/01/19 03:57:45;;;;;;;14.88;2.55;;;;;;;10.79;100.00;92851.38;6217811;23;20138;-90
2024/01/19 04:00:11;;;;;;;9.85;1.27;;;;;;;10.50;100.00;92866.56;6193226;23;20028;-92
2024/01/19 04:02:37;;;;;;;18.33;2.30;;;;;;;10.51;100.00;92864.72;6193236;23;20159;-91
2024/01/19 04:05:03;;;;;;;17.58;1.63;;;;;;;10.62;100.00;92886.19;6217653;23;20055;-91
2024/01/19 04:07:28;;;;;;;7.97;1.60;;;;;;;10.87;100.00;92884.69;6192711;23;20001;-91
2024/01/19 04:09:54;;;;;;;7.90;1.50;;;;;;;10.68;100.00;92882.34;6192562;23;20004;-86
2024/01/19 04:12:19;;;;;;;9.77;1.90;;;;;;;10.58;100.00;92854.59;6217351;23;20028;-91
2024/01/19 04:14:45;;;;;;;10.50;1.50;;;;;;;10.43;100.00;92866.22;6193095;23;20007;-91
2024/01/19 04:17:11;;;;;;;14.48;1.52;;;;;;;10.62;100.00;92873.09;6192501;23;20086;-91
2024/01/19 04:19:38;;;;;;;9.02;1.40;;;;;;;10.63;100.00;92885.09;6192900;23;20016;-91
2024/01/19 04:22:04;;;;;;;9.32;1.67;;;;;;;10.59;100.00;92885.69;6192834;23;20279;-92
2024/01/19 04:24:29;;;;;;;7.88;1.27;;;;;;;10.54;100.00;92891.06;6192149;23;20414;-91
2024/01/19 04:26:55;;;;;;;9.07;1.48;;;;;;;10.71;100.00;92884.34;6192699;23;20016;-91
2024/01/19 04:29:20;;;;;;;11.15;1.63;;;;;;;10.67;100.00;92878.19;6192899;23;20001;-91
2024/01/19 04:31:46;;;;;;;10.88;1.20;;;;;;;10.63;100.00;92898.19;6192344;23;20083;-92
2024/01/19 04:34:11;;;;;;;9.02;1.80;;;;;;;10.55;100.00;92881.38;6192837;23;20004;-92
2024/01/19 04:36:37;;;;;;;8.18;1.95;;;;;;;10.64;100.00;92884.78;6192597;23;20009;-91
2024/01/19 04:39:12;;;;;;;7.13;1.15;;;;;;;10.67;100.00;92901.75;6191435;23;20418;-92
2024/01/19 04:41:37;;;;;;;7.80;1.17;;;;;;;10.70;100.00;92880.19;6216817;23;20025;-88
2024/01/19 04:44:03;;;;;;;9.18;1.80;;;;;;;10.62;100.00;92891.41;6217384;23;20009;-90
2024/01/19 04:46:29;;;;;;;11.30;1.73;;;;;;;10.48;100.00;92908.00;6192252;23;20011;-91
2024/01/19 04:48:54;;;;;;;11.15;0.98;;;;;;;10.50;100.00;92899.84;6217791;23;20003;-85
2024/01/19 04:51:20;;;;;;;10.27;1.05;;;;;;;10.60;100.00;92933.63;6217989;23;19997;-86
2024/01/19 04:53:46;;;;;;;10.45;1.27;;;;;;;10.43;100.00;92942.16;6216855;23;19996;-90
2024/01/19 04:56:11;;;;;;;5.90;1.50;;;;;;;10.22;100.00;92942.66;6192644;23;20016;-91
2024/01/19 04:58:37;;;;;;;5.18;1.05;;;;;;;10.00;100.00;92962.50;6192457;23;20067;-93
2024/01/19 05:01:03;;;;;;;7.65;1.25;;;;;;;10.18;100.00;92932.00;6193252;23;20032;-90
2024/01/19 05:03:29;;;;;;;5.03;0.90;;;;;;;10.51;100.00;92983.34;6192061;23;20004;-92
2024/01/19 05:05:55;;;;;;;9.27;1.55;;;;;;;10.63;100.00;92976.78;6192282;23;20005;-91
2024/01/19 05:08:20;;;;;;;6.97;1.17;;;;;;;10.44;100.00;92982.97;6191657;23;20414;-92
2024/01/19 05:10:46;;;;;;;11.75;1.55;;;;;;;10.29;100.00;92966.53;6192001;23;20319;-91
2024/01/19 05:13:11;;;;;;;7.60;1.00;;;;;;;10.12;100.00;92942.88;6217870;23;20103;-91
2024/01/19 05:15:37;;;;;;;9.50;1.55;;;;;;;10.14;100.00;92969.53;6216761;23;20001;-85
2024/01/19 05:18:03;;;;;;;6.90;1.30;;;;;;;10.06;100.00;92947.47;6217013;23;20347;-93
2024/01/19 05:20:29;;;;;;;10.45;1.42;;;;;;;9.89;100.00;92956.75;6191908;23;20000;-93
2024/01/19 05:22:55;;;;;;;7.50;1.10;;;;;;;9.72;100.00;92959.25;6216534;23;20398;-92
2024/01/19 05:25:21;;;;;;;5.03;1.13;;;;;;;9.70;100.00;92943.84;6216645;23;19996;-92
2024/01/19 05:27:50;;;;;;;14.40;1.60;;;;;;;9.61;100.00;92982.22;6191766;23;20004;-92
2024/01/19 05:30:16;;;;;;;6.97;0.80;;;;;;;9.75;100.00;92969.09;6192728;23;20004;-92
2024/01/19 05:32:42;;;;;;;4.85;0.98;;;;;;;9.86;100.00;92967.81;6217222;23;20424;-92
2024/01/19 05:35:08;;;;;;;7.57;0.85;;;;;;;9.91;100.00;92977.41;6218630;23;20078;-93
2024/01/19 05:37:34;;;;;;;10.07;1.20;;;;;;;9.80;100.00;93007.47;6216777;23;20075;-93
2024/01/19 05:39:59;;;;;;;5.57;1.33;;;;;;;9.93;100.00;93003.25;6217095;23;20047;-91
2024/01/19 05:42:25;;;;;;;8.30;1.20;;;;;;;9.74;100.00;92985.88;6216674;23;20054;-93
2024/01/19 05:44:51;;;;;;;5.63;0.85;;;;;;;9.62;100.00;92963.63;6191197;23;20012;-92
2024/01/19 05:47:16;;;;;;;11.50;1.83;;;;;;;9.61;100.00;92995.28;6218408;23;20071;-92
2024/01/19 05:49:41;;;;;;;6.45;1.10;;;;;;;9.56;100.00;93003.25;6216551;23;20080;-91
2024/01/19 05:52:08;;;;;;;7.88;1.27;;;;;;;9.68;100.00;92995.66;6191429;23;20004;-93
2024/01/19 05:54:34;;;;;;;8.50;1.23;;;;;;;9.45;100.00;93003.44;6218413;23;20012;-93
2024/01/19 05:56:59;;;;;;;13.80;1.50;;;;;;;9.23;100.00;93000.78;6191953;23;20000;-89
2024/01/19 05:59:25;;;;;;;10.20;1.52;;;;;;;9.25;100.00;92999.41;6216874;23;19996;-93
2024/01/19 06:01:50;;;;;;;10.05;1.52;;;;;;;9.26;100.00;93006.22;6191830;23;20299;-94
2024/01/19 06:04:16;;;;;;;10.95;1.67;;;;;;;9.28;100.00;92990.22;6191890;23;20005;-93
2024/01/19 06:06:42;;;;;;;9.43;1.77;;;;;;;9.22;100.00;92996.63;6191574;23;20019;-92
2024/01/19 06:09:08;;;;;;;10.48;1.65;;;;;;;9.28;100.00;92991.00;6191495;23;20363;-92
2024/01/19 06:11:34;;;;;;;8.90;1.52;;;;;;;9.46;100.00;92988.56;6191659;23;19996;-93
2024/01/19 06:13:59;;;;;;;6.20;1.33;;;;;;;9.30;100.00;93003.75;6217490;23;19992;-91
2024/01/19 06:16:29;;;;;;;7.47;1.65;;;;;;;9.14;100.00;92992.84;6216225;23;20454;-91
2024/01/19 06:18:55;;;;;;;10.90;1.85;;;;;;;9.29;100.00;92991.75;6191892;23;20075;-92
2024/01/19 06:21:20;;;;;;;8.70;1.38;;;;;;;9.33;100.00;92997.97;6191466;23;20008;-85
2024/01/19 06:23:46;;;;;;;4.57;1.23;;;;;;;9.24;100.00;93008.31;6215276;23;20005;-86
2024/01/19 06:26:11;;;;;;;3.53;0.90;;;;;;;9.05;100.00;93016.28;6215601;23;20391;-86
2024/01/19 06:28:38;;;;;;;4.28;1.25;;;;;;;8.92;100.00;93004.75;6215601;23;20402;-86
2024/01/19 06:31:08;;;;;;;5.35;1.23;;;;;;;9.17;100.00;93026.25;6215905;23;20328;-86
2024/01/19 06:33:33;;;;;;;8.02;1.55;;;;;;;9.28;100.00;93017.16;6191046;23;19992;-85
2024/01/19 06:35:59;;;;;;;7.13;1.45;;;;;;;9.38;100.00;93026.63;6217564;23;20007;-85
2024/01/19 06:38:24;;;;;;;5.05;1.40;;;;;;;9.43;100.00;93025.75;6215326;23;19997;-85
2024/01/19 06:40:50;;;;;;;6.22;1.52;;;;;;;9.63;100.00;93035.00;6190600;23;20434;-83
2024/01/19 06:43:16;;;;;;;10.98;1.73;;;;;;;9.58;100.00;93029.88;6215265;23;20000;-84
2024/01/19 06:45:41;;;;;;;5.90;1.75;;;;;;;9.62;100.00;93041.31;6189961;23;20012;-85
2024/01/19 06:48:07;;;;;;;12.63;1.52;;;;;;;9.50;100.00;93035.81;6215427;23;20377;-86
2024/01/19 06:50:33;;;;;;;5.18;1.35;;;;;;;9.38;100.00;93039.69;6190553;23;20011;-85
2024/01/19 06:53:00;;;;;;;7.75;1.55;;;;;;;9.38;100.00;93039.69;6191034;23;20087;-85
2024/01/19 06:55:26;;;;;;;9.20;1.60;;;;;;;9.38;100.00;93044.91;6215655;23;20007;-87
2024/01/19 06:57:52;;;;;;;7.70;1.20;;;;;;;9.53;100.00;93062.13;6190932;23;20015;-85
2024/01/19 07:00:18;;;;;;;5.68;1.35;;;;;;;9.45;100.00;93049.75;6190120;23;20027;-85
2024/01/19 07:02:44;;;;;;;9.00;1.90;;;;;;;9.59;100.00;93055.75;6215559;23;20020;-84
2024/01/19 07:05:10;;;;;;;8.48;1.90;;;;;;;9.57;100.00;93063.09;6215400;23;20008;-84
2024/01/19 07:07:35;;;;;;;10.70;1.77;;;;;;;9.48;100.00;93070.88;6190021;23;19993;-84
2024/01/19 07:10:01;;;;;;;6.93;1.65;;;;;;;9.47;100.00;93071.94;6215388;23;19997;-85
2024/01/19 07:12:26;;;;;;;6.32;1.45;;;;;;;9.51;100.00;93081.81;6190448;23;19996;-85
2024/01/19 07:14:52;;;;;;;9.25;1.50;;;;;;;9.50;100.00;93090.72;6215359;23;19997;-85
2024/01/19 07:17:17;;;;;;;6.88;1.52;;;;;;;9.47;100.00;93090.22;6190526;23;20000;-85
2024/01/19 07:19:43;;;;;;;7.57;1.70;;;;;;;9.36;100.00;93093.31;6190510;23;19997;-85
2024/01/19 07:22:08;;;;;;;11.38;1.67;;;;;;;9.47;100.00;93084.22;6215185;23;20024;-85
2024/01/19 07:24:35;;;;;;;17.65;2.08;;;;;;;9.53;100.00;93087.50;6189996;23;20063;-85
2024/01/19 07:27:02;;;;;;;11.95;1.65;;;;;;;9.53;100.00;93090.13;6190694;23;20000;-85
2024/01/19 07:29:28;;;;;;;13.55;2.08;;;;;;;9.58;100.00;93085.56;6214955;23;20000;-85
2024/01/19 07:31:54;;;;;;;6.88;1.30;;;;;;;9.67;100.00;93074.41;6191264;23;19997;-85
2024/01/19 07:34:20;;;;;;;6.10;1.70;;;;;;;9.65;100.00;93085.19;6192521;23;19996;-85
2024/01/19 07:36:45;;;;;;;7.95;1.90;;;;;;;9.58;100.00;93092.63;6192562;23;20517;-85
2024/01/19 07:39:11;;;;;;;12.10;1.77;;;;;;;9.57;100.00;93094.47;6217085;23;20425;-85
2024/01/19 07:41:36;;;;;;;6.10;1.17;;;;;;;9.59;100.00;93102.81;6217160;23;19996;-85
2024/01/19 07:44:01;;;;;;;9.50;1.75;;;;;;;9.76;100.00;93114.50;6217145;23;20035;-85
2024/01/19 07:46:27;;;;;;;15.43;2.63;;;;;;;9.71;100.00;93114.63;6192062;23;20006;-85
2024/01/19 07:48:52;;;;;;;7.38;1.50;;;;;;;9.76;100.00;93123.16;6191802;23;20410;-86
2024/01/19 07:51:19;;;;;;;7.10;1.55;;;;;;;9.70;100.00;93129.53;6191668;23;20362;-85
2024/01/19 07:53:45;;;;;;;10.48;2.20;;;;;;;9.80;100.00;93127.78;6192284;23;20003;-85
2024/01/19 07:56:10;;;;;;;10.98;2.55;;;;;;;9.66;100.00;93117.31;6192114;23;20353;-85
2024/01/19 07:58:36;;;;;;;20.45;4.03;;;;;;;9.48;100.00;93127.59;6218290;23;20039;-85
2024/01/19 08:01:01;;;;;;;12.13;2.70;;;;;;;9.54;100.00;93129.06;6216398;23;20000;-85
2024/01/19 08:03:27;;;;;;;17.13;4.18;;;;;;;9.39;100.00;93126.72;6216866;23;20008;-85
2024/01/19 08:05:52;;;;;;;17.25;5.10;;;;;;;9.47;100.00;93131.28;6217132;23;20000;-85
2024/01/19 08:08:18;;;;;;;10.73;2.45;;;;;;;9.55;100.00;93128.00;6191939;23;20287;-85
2024/01/19 08:10:43;;;;;;;8.73;2.08;;;;;;;9.68;100.00;93128.25;6216554;23;19996;-85
2024/01/19 08:13:08;;;;;;;10.43;3.78;;;;;;;9.17;100.00;93134.13;6218170;23;20004;-85
2024/01/19 08:15:34;;;;;;;19.17;5.55;;;;;;;9.35;100.00;93139.59;6216617;23;19997;-86
2024/01/19 08:18:00;;;;;;;22.73;9.43;;;;;;;9.11;100.00;93160.66;6216701;23;20006;-85
2024/01/19 08:20:26;;;;;;;22.98;9.55;;;;;;;8.52;100.00;93172.25;6216543;23;19997;-85
2024/01/19 08:22:53;;;;;;;25.88;9.57;;;;;;;8.21;100.00;93177.88;6217078;23;20053;-86
2024/01/19 08:25:19;;;;;;;29.50;10.63;;;;;;;7.71;100.00;93173.00;6216561;23;19996;-85
2024/01/19 08:27:46;;;;;;;23.60;10.50;;;;;;;7.54;100.00;93184.66;6216739;23;20001;-85
2024/01/19 08:30:12;;;;;;;23.88;8.80;;;;;;;7.24;100.00;93180.50;6191782;23;20004;-85
2024/01/19 08:32:37;;;;;;;24.08;10.02;;;;;;;7.68;100.00;93187.34;6216491;23;20005;-85
2024/01/19 08:35:09;;;;;;;23.08;8.57;;;;;;;8.16;100.00;93188.34;6191536;23;20486;-85
2024/01/19 08:37:39;;;;;;;20.38;8.40;;;;;;;8.36;100.00;93202.97;6216503;23;20031;-85
2024/01/19 08:40:07;;;;;;;19.67;8.48;;;;;;;8.52;100.00;93208.81;6191658;23;20005;-85
2024/01/19 08:42:33;;;;;;;22.40;7.15;;;;;;;9.04;100.00;93202.84;6216223;23;20058;-85
2024/01/19 08:44:59;;;;;;;18.27;7.88;;;;;;;9.07;100.00;93210.09;6191495;23;20095;-85
2024/01/19 08:47:25;;;;;;;16.52;7.72;;;;;;;8.99;100.00;93202.91;6191277;23;20003;-85
2024/01/19 08:49:50;;;;;;;22.25;8.85;;;;;;;9.22;100.00;93216.91;6216358;23;20473;-85
2024/01/19 08:52:16;;;;;;;20.42;9.32;;;;;;;9.01;100.00;93232.13;6191400;23;19997;-85
2024/01/19 08:54:42;;;;;;;28.85;11.40;;;;;;;8.68;100.00;93229.47;6191507;23;20023;-85
2024/01/19 08:57:07;;;;;;;29.15;11.35;;;;;;;8.69;100.00;93224.00;6216892;23;20007;-85
2024/01/19 08:59:33;;;;;;;23.98;10.27;;;;;;;8.47;100.00;93238.34;6191349;23;20008;-85
2024/01/19 09:01:58;;;;;;;29.25;11.57;;;;;;;8.21;100.00;93227.44;6216429;23;20003;-85
2024/01/19 09:04:24;;;;;;;24.08;11.27;;;;;;;8.51;100.00;93251.63;6216178;23;20357;-85
2024/01/19 09:06:50;;;;;;;27.52;11.65;;;;;;;8.36;100.00;93255.19;6191415;23;20024;-85
2024/01/19 09:09:16;;;;;;;23.48;11.45;;;;;;;8.38;100.00;93254.91;6191193;23;20007;-85
2024/01/19 09:11:42;;;;;;;35.10;12.88;;;;;;;8.37;100.00;93274.22;6216014;23;20317;-85
2024/01/19 09:14:09;;;;;;;26.83;11.70;;;;;;;8.41;100.00;93276.00;6216147;23;20001;-85
2024/01/19 09:16:35;;;;;;;26.10;10.85;;;;;;;8.68;100.00;93268.66;6216325;23;20024;-85
2024/01/19 09:19:00;;;;;;;28.92;13.70;;;;;;;7.76;100.00;93258.97;6216113;23;19993;-85
2024/01/19 09:21:26;;;;;;;30.90;12.52;;;;;;;8.01;100.00;93278.78;6191141;23;20004;-85
2024/01/19 09:23:53;;;;;;;29.70;13.98;;;;;;;8.36;100.00;93299.53;6215916;23;20004;-85
2024/01/19 09:26:22;;;;;;;27.83;12.15;;;;;;;8.42;100.00;93302.88;6216112;23;20004;-85
2024/01/19 09:28:48;;;;;;;29.27;13.52;;;;;;;7.77;100.00;93304.84;6215906;23;19997;-85
2024/01/19 09:31:15;;;;;;;31.35;14.45;;;;;;;8.34;100.00;93301.66;6191105;23;20053;-85
2024/01/19 09:33:40;;;;;;;33.13;13.98;;;;;;;8.61;100.00;93313.38;6215946;23;19992;-85
2024/01/19 09:36:06;;;;;;;36.13;15.52;;;;;;;7.12;100.00;93327.50;6216287;23;20007;-85
2024/01/19 09:38:35;;;;;;;35.15;14.73;;;;;;;7.07;100.00;93328.31;6215893;23;20024;-85
2024/01/19 09:41:21;;;;;;;27.65;13.90;;;;;;;7.82;100.00;93330.91;6215729;23;20299;-85
2024/01/19 09:43:48;;;;;;;33.08;16.58;;;;;;;7.77;100.00;93334.31;6215811;23;19997;-85
2024/01/19 09:46:21;;;;;;;36.67;16.80;;;;;;;8.42;100.00;93336.81;6215786;23;20000;-85
2024/01/19 09:49:16;;;;;;;31.98;15.57;;;;;;;8.93;100.00;93353.72;6191599;23;19997;-85
2024/01/19 09:52:02;;;;;;;31.42;15.50;;;;;;;8.84;100.00;93339.75;6213938;23;20326;-85
2024/01/19 09:54:32;;;;;;;34.58;15.95;;;;;;;9.21;100.00;93353.09;6215324;23;19989;-85
2024/01/19 09:56:59;;;;;;;34.17;15.95;;;;;;;9.25;100.00;93354.09;6216508;23;20004;-85
2024/01/19 09:59:30;;;;;;;36.17;16.08;;;;;;;9.58;100.00;93359.34;6190982;23;20054;-85
2024/01/19 10:01:56;;;;;;;33.35;15.45;;;;;;;10.00;100.00;93356.88;6190614;23;20361;-85
2024/01/19 10:04:22;;;;;;;38.13;16.40;;;;;;;9.69;100.00;93375.69;6190767;23;20009;-85
2024/01/19 10:06:49;;;;;;;29.80;14.82;;;;;;;9.75;100.00;93387.59;6190153;23;20366;-85
2024/01/19 10:09:15;;;;;;;30.60;15.50;;;;;;;9.66;100.00;93379.63;6215651;23;19996;-85
2024/01/19 10:11:41;;;;;;;29.63;13.82;;;;;;;9.98;100.00;93378.06;6215469;23;20401;-85
2024/01/19 10:14:07;;;;;;;28.77;13.95;;;;;;;9.82;100.00;93374.16;6190797;23;20079;-85
2024/01/19 10:16:34;;;;;;;33.10;13.73;;;;;;;10.11;100.00;93383.63;6215603;23;20023;-85
2024/01/19 10:19:02;;;;;;;26.65;11.75;;;;;;;9.74;100.00;93393.91;6191049;23;19996;-85
2024/01/19 10:21:28;;;;;;;30.20;12.50;;;;;;;9.79;100.00;93387.81;6215806;23;20001;-85
2024/01/19 10:24:12;;;;;;;33.85;12.48;;;;;;;10.09;100.00;93391.75;6190606;23;20016;-85
2024/01/19 10:26:38;;;;;;;31.95;12.02;;;;;;;9.49;100.00;93401.06;6215450;23;19993;-85
2024/01/19 10:29:14;;;;;;;25.02;11.63;;;;;;;9.85;100.00;93403.16;6191110;23;20304;-86
2024/01/19 10:31:42;;;;;;;26.83;12.77;;;;;;;9.46;100.00;93405.00;6190841;23;19992;-85
2024/01/19 10:34:28;;;;;;;27.63;12.35;;;;;;;9.48;100.00;93412.56;6190719;23;20402;-86
2024/01/19 10:36:54;;;;;;;33.60;13.90;;;;;;;9.57;100.00;93417.94;6211718;23;20349;-85
2024/01/19 10:39:29;;;;;;;34.88;14.38;;;;;;;9.76;100.00;93421.34;6190733;23;20138;-85
2024/01/19 10:42:06;;;;;;;41.40;14.65;;;;;;;9.28;100.00;93424.88;6215431;23;20000;-85
2024/01/19 10:44:32;;;;;;;38.20;13.90;;;;;;;8.57;100.00;93438.47;6215643;23;20015;-85
2024/01/19 10:46:57;;;;;;;40.08;14.18;;;;;;;8.88;100.00;93440.75;6190534;23;20075;-85
2024/01/19 10:49:23;;;;;;;34.00;13.55;;;;;;;8.90;100.00;93441.28;6215410;23;20082;-85
2024/01/19 10:51:49;;;;;;;27.58;11.30;;;;;;;9.63;100.00;93442.97;6190838;23;19993;-86
2024/01/19 10:54:25;;;;;;;28.83;11.07;;;;;;;10.08;100.00;93455.63;6191003;23;20004;-85
2024/01/19 10:57:04;;;;;;;24.27;10.60;;;;;;;10.46;100.00;93463.44;6191517;23;20000;-85
2024/01/19 10:59:29;;;;;;;23.52;8.73;;;;;;;10.33;100.00;93472.00;6190954;23;20317;-85
2024/01/19 11:01:59;;;;;;;25.75;9.63;;;;;;;10.49;100.00;93471.78;6190232;23;20003;-85
2024/01/19 11:04:26;;;;;;;20.98;8.73;;;;;;;10.16;100.00;93475.16;6190452;23;20426;-85
2024/01/19 11:06:51;;;;;;;28.15;9.02;;;;;;;10.50;100.00;93466.25;6216699;23;19996;-85
2024/01/19 11:09:29;;;;;;;23.02;8.43;;;;;;;10.75;100.00;93475.50;6192849;23;20015;-85
2024/01/19 11:11:57;;;;;;;23.13;9.18;;;;;;;10.80;100.00;93484.34;6192244;23;20394;-85
2024/01/19 11:14:24;;;;;;;25.38;8.63;;;;;;;10.87;100.00;93490.75;6192305;23;20088;-86
2024/01/19 11:16:52;;;;;;;32.58;12.38;;;;;;;10.11;100.00;93485.69;6217190;23;19996;-85
2024/01/19 11:19:18;;;;;;;27.05;9.63;;;;;;;10.10;100.00;93492.78;6191949;23;20009;-85
2024/01/19 11:21:44;;;;;;;31.27;10.60;;;;;;;9.74;100.00;93491.44;6192641;23;20000;-85